createdAt,value
2022-09-20T00:01:29.067Z,98006.15
2022-09-20T00:02:35.545Z,98005.58
2022-09-20T00:03:46.375Z,98007.53
2022-09-20T00:04:52.942Z,98008.50
2022-09-20T00:06:01.585Z,98005.95
2022-09-20T00:07:07.921Z,98008.88
2022-09-20T00:08:16.078Z,98010.14
2022-09-20T00:09:22.401Z,98009.25
2022-09-20T00:10:28.357Z,98012.39
2022-09-20T00:11:35.263Z,98006.41
2022-09-20T00:12:42.057Z,98015.76
2022-09-20T00:13:52.187Z,98018.10
2022-09-20T00:15:02.561Z,98014.83
2022-09-20T00:16:11.410Z,98011.81
2022-09-20T00:17:18.696Z,98014.88
2022-09-20T00:18:24.792Z,98016.69
2022-09-20T00:19:31.392Z,98016.98
2022-09-20T00:20:38.409Z,98017.83
2022-09-20T00:21:45.063Z,98016.19
2022-09-20T00:22:51.368Z,98023.20
2022-09-20T00:24:01.464Z,98021.91
2022-09-20T00:25:11.079Z,98015.88
2022-09-20T00:26:19.341Z,98020.14
2022-09-20T00:27:26.412Z,98022.02
2022-09-20T00:28:34.456Z,98024.91
2022-09-20T00:29:41.384Z,98028.00
2022-09-20T00:30:50.507Z,98027.66
2022-09-20T00:31:58.600Z,98030.14
2022-09-20T00:33:05.887Z,98035.25
2022-09-20T00:34:31.724Z,98037.84
2022-09-20T00:35:37.757Z,98035.29
2022-09-20T00:36:48.007Z,98040.14
2022-09-20T00:37:55.657Z,98038.39
2022-09-20T00:39:07.088Z,98036.92
2022-09-20T00:40:22.483Z,98037.20
2022-09-20T00:41:30.279Z,98033.50
2022-09-20T00:42:44.484Z,98036.83
2022-09-20T00:43:52.693Z,98037.39
2022-09-20T00:45:10.666Z,98040.98
2022-09-20T00:46:35.662Z,98040.21
2022-09-20T00:47:46.733Z,98037.33
2022-09-20T00:48:56.134Z,98037.39
2022-09-20T00:50:28.558Z,98036.86
2022-09-20T00:51:35.607Z,98035.12
2022-09-20T00:52:41.809Z,98035.65
2022-09-20T00:53:49.431Z,98038.46
2022-09-20T00:54:59.898Z,98032.45
2022-09-20T00:56:19.347Z,98033.13
2022-09-20T00:57:26.349Z,98035.23
2022-09-20T00:58:35.576Z,98035.69
2022-09-20T00:59:42.996Z,98035.80
2022-09-20T01:00:51.027Z,98043.38
2022-09-20T01:02:27.837Z,98040.04
2022-09-20T01:03:34.254Z,98045.47
2022-09-20T01:04:40.714Z,98045.45
2022-09-20T01:05:46.824Z,98044.92
2022-09-20T01:06:53.971Z,98039.80
2022-09-20T01:08:00.316Z,98040.83
2022-09-20T01:09:07.922Z,98047.69
2022-09-20T01:10:15.514Z,98049.46
2022-09-20T01:11:21.591Z,98053.30
2022-09-20T01:12:32.085Z,98044.61
2022-09-20T01:13:38.721Z,98049.56
2022-09-20T01:14:45.192Z,98053.39
2022-09-20T01:15:51.105Z,98053.41
2022-09-20T01:16:59.661Z,98059.98
2022-09-20T01:18:07.139Z,98060.20
2022-09-20T01:19:29.416Z,98057.02
2022-09-20T01:20:38.826Z,98062.13
2022-09-20T01:21:47.527Z,98061.94
2022-09-20T01:23:04.961Z,98061.12
2022-09-20T01:24:28.908Z,98065.46
2022-09-20T01:25:41.340Z,98069.15
2022-09-20T01:27:11.791Z,98069.27
2022-09-20T01:28:19.861Z,98072.55
2022-09-20T01:29:33.964Z,98072.65
2022-09-20T01:31:09.127Z,98073.36
2022-09-20T01:32:18.657Z,98078.00
2022-09-20T01:34:00.006Z,98076.31
2022-09-20T01:35:15.370Z,98076.93
2022-09-20T01:36:27.157Z,98071.77
2022-09-20T01:38:01.611Z,98073.12
2022-09-20T01:39:25.973Z,98071.77
2022-09-20T01:40:51.079Z,98074.20
2022-09-20T01:42:13.339Z,98080.27
2022-09-20T01:43:37.079Z,98081.49
2022-09-20T01:45:17.688Z,98084.37
2022-09-20T01:46:34.547Z,98082.66
2022-09-20T01:47:53.309Z,98085.96
2022-09-20T01:49:09.527Z,98088.17
2022-09-20T01:50:37.630Z,98088.47
2022-09-20T01:52:05.032Z,98092.27
2022-09-20T01:53:38.516Z,98090.58
2022-09-20T01:55:09.385Z,98090.48
2022-09-20T01:56:45.975Z,98088.88
2022-09-20T01:58:27.426Z,98095.41
2022-09-20T01:59:57.458Z,98094.27
2022-09-20T02:01:28.713Z,98097.31
2022-09-20T02:03:02.792Z,98095.98
2022-09-20T02:04:29.926Z,98093.36
2022-09-20T02:05:45.294Z,98098.59
2022-09-20T02:07:21.072Z,98097.41
2022-09-20T02:08:40.905Z,98097.20
2022-09-20T02:09:53.741Z,98099.92
2022-09-20T02:11:11.088Z,98102.84
2022-09-20T02:12:55.958Z,98107.36
2022-09-20T02:14:38.487Z,98105.82
2022-09-20T02:16:14.024Z,98110.25
2022-09-20T02:17:35.277Z,98114.19
2022-09-20T02:18:58.902Z,98117.48
2022-09-20T02:20:25.405Z,98118.30
2022-09-20T02:22:02.573Z,98119.12
2022-09-20T02:23:27.373Z,98123.55
2022-09-20T02:24:48.058Z,98123.38
2022-09-20T02:26:24.424Z,98125.23
2022-09-20T02:27:44.538Z,98128.07
2022-09-20T02:28:57.259Z,98127.52
2022-09-20T02:30:26.084Z,98133.72
2022-09-20T02:31:51.907Z,98133.73
2022-09-20T02:33:22.305Z,98138.27
2022-09-20T02:34:40.520Z,98141.95
2022-09-20T02:35:59.434Z,98146.20
2022-09-20T02:37:15.640Z,98146.58
2022-09-20T02:38:31.452Z,98150.61
2022-09-20T02:40:04.669Z,98155.17
2022-09-20T02:41:40.895Z,98158.19
2022-09-20T02:43:10.987Z,98162.73
2022-09-20T02:44:44.976Z,98166.00
2022-09-20T02:46:19.588Z,98164.65
2022-09-20T02:47:49.037Z,98167.85
2022-09-20T02:49:47.364Z,98174.10
2022-09-20T02:51:35.375Z,98175.05
2022-09-20T02:52:51.650Z,98182.60
2022-09-20T02:54:08.022Z,98185.98
2022-09-20T02:55:28.842Z,98189.20
2022-09-20T02:56:36.496Z,98191.39
2022-09-20T02:58:16.657Z,98195.66
2022-09-20T02:59:54.643Z,98201.86
2022-09-20T03:01:29.537Z,98202.92
2022-09-20T03:03:17.703Z,98204.39
2022-09-20T03:04:48.725Z,98213.02
2022-09-20T03:06:04.949Z,98212.06
2022-09-20T03:07:52.601Z,98212.61
2022-09-20T03:09:23.230Z,98216.39
2022-09-20T03:10:43.874Z,98220.30
2022-09-20T03:12:09.666Z,98222.02
2022-09-20T03:13:20.332Z,98223.35
2022-09-20T03:14:37.978Z,98227.91
2022-09-20T03:16:15.304Z,98228.57
2022-09-20T03:17:28.472Z,98233.39
2022-09-20T03:18:53.931Z,98233.17
2022-09-20T03:20:08.991Z,98236.83
2022-09-20T03:21:19.343Z,98239.92
2022-09-20T03:22:46.844Z,98244.38
2022-09-20T03:24:25.728Z,98244.60
2022-09-20T03:25:59.786Z,98245.69
2022-09-20T03:27:12.969Z,98245.21
2022-09-20T03:28:40.643Z,98248.42
2022-09-20T03:30:16.782Z,98250.21
2022-09-20T03:31:34.034Z,98252.03
2022-09-20T03:32:52.339Z,98251.52
2022-09-20T03:34:33.509Z,98253.64
2022-09-20T03:35:57.086Z,98256.86
2022-09-20T03:37:20.094Z,98261.70
2022-09-20T03:39:14.603Z,98260.19
2022-09-20T03:40:30.640Z,98261.70
2022-09-20T03:42:00.457Z,98267.41
2022-09-20T03:43:15.493Z,98270.59
2022-09-20T03:44:40.206Z,98270.19
2022-09-20T03:46:19.109Z,98272.48
2022-09-20T03:47:43.938Z,98277.48
2022-09-20T03:49:26.023Z,98280.70
2022-09-20T03:50:53.878Z,98284.12
2022-09-20T03:52:16.806Z,98282.02
2022-09-20T03:53:56.819Z,98285.01
2022-09-20T03:55:27.859Z,98284.57
2022-09-20T03:57:00.597Z,98286.98
2022-09-20T03:58:31.801Z,98285.78
2022-09-20T04:00:13.284Z,98286.87
2022-09-20T04:01:37.007Z,98294.50
2022-09-20T04:02:50.041Z,98295.99
2022-09-20T04:04:14.882Z,98300.50
2022-09-20T04:05:32.300Z,98299.05
2022-09-20T04:06:52.431Z,98300.71
2022-09-20T04:08:17.328Z,98300.92
2022-09-20T04:09:48.374Z,98301.38
2022-09-20T04:11:01.335Z,98303.03
2022-09-20T04:12:35.111Z,98305.63
2022-09-20T04:13:45.714Z,98305.17
2022-09-20T04:15:10.456Z,98305.38
2022-09-20T04:16:33.865Z,98306.20
2022-09-20T04:18:09.589Z,98305.30
2022-09-20T04:19:37.613Z,98303.66
2022-09-20T04:20:59.715Z,98306.20
2022-09-20T04:22:08.979Z,98307.64
2022-09-20T04:23:38.466Z,98306.26
2022-09-20T04:24:59.140Z,98310.02
2022-09-20T04:26:07.321Z,98315.05
2022-09-20T04:27:33.844Z,98315.14
2022-09-20T04:29:21.355Z,98317.19
2022-09-20T04:30:30.716Z,98318.79
2022-09-20T04:32:06.210Z,98320.67
2022-09-20T04:33:23.719Z,98320.08
2022-09-20T04:35:09.261Z,98319.73
2022-09-20T04:36:29.974Z,98324.70
2022-09-20T04:37:40.431Z,98325.98
2022-09-20T04:38:49.112Z,98326.23
2022-09-20T04:40:10.413Z,98329.31
2022-09-20T04:41:44.646Z,98332.10
2022-09-20T04:42:55.632Z,98332.53
2022-09-20T04:44:23.859Z,98334.11
2022-09-20T04:45:37.784Z,98335.95
2022-09-20T04:47:12.456Z,98334.56
2022-09-20T04:48:39.323Z,98335.73
2022-09-20T04:50:12.847Z,98335.98
2022-09-20T04:51:33.943Z,98335.29
2022-09-20T04:52:50.647Z,98331.70
2022-09-20T04:54:28.509Z,98333.56
2022-09-20T04:55:37.344Z,98336.54
2022-09-20T04:56:50.510Z,98337.11
2022-09-20T04:58:40.467Z,98337.29
2022-09-20T05:00:23.182Z,98338.70
2022-09-20T05:02:04.549Z,98338.63
2022-09-20T05:03:30.310Z,98340.85
2022-09-20T05:04:42.197Z,98343.23
2022-09-20T05:06:10.822Z,98343.38
2022-09-20T05:07:38.738Z,98344.17
2022-09-20T05:09:03.612Z,98344.88
2022-09-20T05:10:34.653Z,98344.00
2022-09-20T05:12:24.678Z,98344.41
2022-09-20T05:13:46.718Z,98345.23
2022-09-20T05:15:14.313Z,98343.52
2022-09-20T05:16:44.012Z,98349.08
2022-09-20T05:18:15.620Z,98348.13
2022-09-20T05:19:28.564Z,98347.86
2022-09-20T05:20:56.877Z,98347.50
2022-09-20T05:22:48.284Z,98348.59
2022-09-20T05:24:16.644Z,98349.31
2022-09-20T05:25:29.131Z,98349.13
2022-09-20T05:26:57.850Z,98349.08
2022-09-20T05:28:20.133Z,98348.41
2022-09-20T05:29:49.042Z,98352.63
2022-09-20T05:31:00.096Z,98349.02
2022-09-20T05:32:12.196Z,98349.88
2022-09-20T05:33:41.235Z,98344.52
2022-09-20T05:35:00.671Z,98342.73
2022-09-20T05:36:19.511Z,98344.02
2022-09-20T05:37:46.027Z,98345.98
2022-09-20T05:39:10.818Z,98348.63
2022-09-20T05:40:21.277Z,98353.12
2022-09-20T05:41:55.394Z,98352.16
2022-09-20T05:43:13.581Z,98358.98
2022-09-20T05:44:52.140Z,98355.80
2022-09-20T05:46:13.992Z,98356.64
2022-09-20T05:47:33.774Z,98358.14
2022-09-20T05:49:15.470Z,98363.96
2022-09-20T05:50:44.088Z,98364.73
2022-09-20T05:52:15.591Z,98364.46
2022-09-20T05:53:49.820Z,98369.55
2022-09-20T05:55:03.041Z,98370.48
2022-09-20T05:56:32.923Z,98371.89
2022-09-20T05:57:44.238Z,98373.03
2022-09-20T05:59:03.193Z,98376.08
2022-09-20T06:00:10.383Z,98375.58
2022-09-20T06:01:50.056Z,98377.43
2022-09-20T06:03:46.158Z,98381.51
2022-09-20T06:05:26.375Z,98386.14
2022-09-20T06:06:56.970Z,98385.93
2022-09-20T06:08:15.203Z,98388.55
2022-09-20T06:09:53.985Z,98389.70
2022-09-20T06:11:06.248Z,98392.80
2022-09-20T06:12:37.485Z,98394.08
2022-09-20T06:14:00.732Z,98393.36
2022-09-20T06:15:23.424Z,98394.00
2022-09-20T06:16:51.377Z,98397.60
2022-09-20T06:18:25.102Z,98391.89
2022-09-20T06:20:00.403Z,98390.98
2022-09-20T06:21:22.554Z,98391.90
2022-09-20T06:22:34.824Z,98393.00
2022-09-20T06:23:41.732Z,98395.02
2022-09-20T06:25:04.290Z,98399.59
2022-09-20T06:26:25.059Z,98401.55
2022-09-20T06:27:41.566Z,98406.14
2022-09-20T06:28:58.628Z,98403.98
2022-09-20T06:30:08.462Z,98403.56
2022-09-20T06:31:18.483Z,98407.77
2022-09-20T06:32:25.648Z,98407.90
2022-09-20T06:33:32.288Z,98405.45
2022-09-20T06:34:39.246Z,98407.50
2022-09-20T06:35:48.887Z,98410.61
2022-09-20T06:37:42.096Z,98413.92
2022-09-20T06:39:17.172Z,98410.94
2022-09-20T06:40:53.485Z,98410.38
2022-09-20T06:42:01.796Z,98408.80
2022-09-20T06:43:09.166Z,98410.54
2022-09-20T06:44:16.876Z,98412.97
2022-09-20T06:45:24.195Z,98415.28
2022-09-20T06:46:32.089Z,98416.45
2022-09-20T06:47:38.931Z,98416.54
2022-09-20T06:48:45.929Z,98417.27
2022-09-20T06:49:53.225Z,98415.38
2022-09-20T06:51:02.334Z,98416.36
2022-09-20T06:52:12.207Z,98415.13
2022-09-20T06:53:28.012Z,98414.52
2022-09-20T06:54:34.460Z,98413.40
2022-09-20T06:55:41.381Z,98412.13
2022-09-20T06:56:48.304Z,98411.46
2022-09-20T06:57:55.088Z,98411.55
2022-09-20T06:59:02.218Z,98413.48
2022-09-20T07:00:13.485Z,98410.17
2022-09-20T07:01:29.713Z,98412.89
2022-09-20T07:02:37.567Z,98411.86
2022-09-20T07:03:43.714Z,98414.41
2022-09-20T07:04:50.117Z,98416.60
2022-09-20T07:05:57.101Z,98417.97
2022-09-20T07:07:09.105Z,98417.23
2022-09-20T07:08:17.851Z,98417.89
2022-09-20T07:09:24.932Z,98418.45
2022-09-20T07:10:31.760Z,98418.11
2022-09-20T07:11:38.021Z,98422.44
2022-09-20T07:12:44.498Z,98423.11
2022-09-20T07:13:53.031Z,98424.16
2022-09-20T07:14:59.593Z,98421.92
2022-09-20T07:16:08.370Z,98421.61
2022-09-20T07:17:15.542Z,98419.60
2022-09-20T07:18:22.626Z,98418.06
2022-09-20T07:19:29.582Z,98419.16
2022-09-20T07:20:35.514Z,98416.79
2022-09-20T07:21:41.808Z,98417.23
2022-09-20T07:22:48.815Z,98418.24
2022-09-20T07:23:55.019Z,98416.34
2022-09-20T07:25:03.589Z,98418.77
2022-09-20T07:26:22.376Z,98418.98
2022-09-20T07:27:30.189Z,98418.12
2022-09-20T07:28:36.393Z,98419.03
2022-09-20T07:29:42.367Z,98418.27
2022-09-20T07:30:51.100Z,98417.77
2022-09-20T07:31:58.033Z,98421.23
2022-09-20T07:33:04.880Z,98420.61
2022-09-20T07:34:12.784Z,98423.24
2022-09-20T07:35:20.348Z,98422.48
2022-09-20T07:36:28.370Z,98424.29
2022-09-20T07:37:37.148Z,98426.43
2022-09-20T07:38:44.976Z,98432.29
2022-09-20T07:39:51.815Z,98431.08
2022-09-20T07:40:59.404Z,98429.08
2022-09-20T07:42:09.593Z,98430.79
2022-09-20T07:43:15.709Z,98430.13
2022-09-20T07:44:28.745Z,98430.62
2022-09-20T07:45:35.755Z,98428.63
2022-09-20T07:46:41.889Z,98429.02
2022-09-20T07:47:47.789Z,98430.14
2022-09-20T07:48:53.970Z,98430.10
2022-09-20T07:49:59.699Z,98427.95
2022-09-20T07:51:08.754Z,98427.77
2022-09-20T07:52:16.295Z,98425.89
2022-09-20T07:53:24.552Z,98423.13
2022-09-20T07:54:31.319Z,98423.13
2022-09-20T07:55:38.575Z,98420.37
2022-09-20T07:56:45.065Z,98421.29
2022-09-20T07:57:52.219Z,98424.84
2022-09-20T07:58:59.975Z,98422.17
2022-09-20T08:00:09.101Z,98422.31
2022-09-20T08:01:23.972Z,98424.08
2022-09-20T08:02:31.096Z,98419.56
2022-09-20T08:03:37.095Z,98418.65
2022-09-20T08:04:44.459Z,98419.91
2022-09-20T08:05:51.203Z,98419.17
2022-09-20T08:06:59.456Z,98418.45
2022-09-20T08:08:07.687Z,98415.20
2022-09-20T08:09:15.946Z,98416.45
2022-09-20T08:10:27.747Z,98413.25
2022-09-20T08:11:35.430Z,98412.00
2022-09-20T08:14:15.462Z,98412.19
2022-09-20T08:15:23.737Z,98409.52
2022-09-20T08:16:30.842Z,98406.81
2022-09-20T08:17:37.427Z,98405.43
2022-09-20T08:18:58.482Z,98403.39
2022-09-20T08:20:07.268Z,98407.31
2022-09-20T08:21:17.461Z,98407.10
2022-09-20T08:22:27.997Z,98406.56
2022-09-20T08:23:38.642Z,98404.81
2022-09-20T08:24:45.154Z,98404.30
2022-09-20T08:25:52.057Z,98405.96
2022-09-20T08:27:01.239Z,98406.41
2022-09-20T08:28:08.078Z,98406.15
2022-09-20T08:29:16.250Z,98404.81
2022-09-20T08:30:27.630Z,98406.05
2022-09-20T08:31:36.521Z,98404.21
2022-09-20T08:32:43.595Z,98403.70
2022-09-20T08:33:51.039Z,98402.35
2022-09-20T08:34:57.367Z,98404.03
2022-09-20T08:36:04.631Z,98397.97
2022-09-20T08:37:12.450Z,98398.92
2022-09-20T08:40:01.914Z,98394.61
2022-09-20T08:41:27.717Z,98393.31
2022-09-20T08:42:43.643Z,98392.45
2022-09-20T08:43:54.954Z,98392.09
2022-09-20T08:45:02.678Z,98390.59
2022-09-20T08:46:10.365Z,98391.14
2022-09-20T08:47:21.451Z,98393.20
2022-09-20T08:48:35.095Z,98393.41
2022-09-20T08:49:46.157Z,98390.24
2022-09-20T08:50:53.557Z,98393.01
2022-09-20T08:52:00.325Z,98392.77
2022-09-20T08:53:07.091Z,98392.23
2022-09-20T08:54:17.219Z,98393.95
2022-09-20T08:55:36.832Z,98392.50
2022-09-20T08:56:50.947Z,98390.46
2022-09-20T08:57:59.355Z,98388.80
2022-09-20T08:59:06.231Z,98390.43
2022-09-20T09:00:24.282Z,98392.52
2022-09-20T09:01:32.803Z,98394.05
2022-09-20T09:02:38.853Z,98397.27
2022-09-20T09:03:44.599Z,98398.58
2022-09-20T09:04:50.760Z,98394.86
2022-09-20T09:06:01.797Z,98396.61
2022-09-20T09:07:09.003Z,98396.84
2022-09-20T09:08:16.949Z,98391.91
2022-09-20T09:09:27.137Z,98392.49
2022-09-20T09:10:42.676Z,98390.20
2022-09-20T09:11:49.749Z,98391.00
2022-09-20T09:12:56.393Z,98389.01
2022-09-20T09:14:52.881Z,98388.11
2022-09-20T09:16:03.439Z,98387.02
2022-09-20T09:17:12.228Z,98387.73
2022-09-20T09:18:18.947Z,98387.27
2022-09-20T09:19:36.311Z,98386.14
2022-09-20T09:20:47.197Z,98386.69
2022-09-20T09:22:01.180Z,98383.44
2022-09-20T09:23:10.976Z,98380.94
2022-09-20T09:24:19.670Z,98382.05
2022-09-20T09:25:33.110Z,98377.96
2022-09-20T09:26:43.995Z,98377.23
2022-09-20T09:27:57.884Z,98377.90
2022-09-20T09:29:25.681Z,98377.73
2022-09-20T09:30:42.593Z,98376.02
2022-09-20T09:31:49.684Z,98375.02
2022-09-20T09:33:16.460Z,98370.94
2022-09-20T09:34:30.155Z,98375.10
2022-09-20T09:35:36.749Z,98373.68
2022-09-20T09:36:45.750Z,98371.73
2022-09-20T09:38:01.611Z,98374.27
2022-09-20T09:39:22.155Z,98374.59
2022-09-20T09:40:32.178Z,98376.14
2022-09-20T09:41:38.171Z,98374.89
2022-09-20T09:43:12.757Z,98373.45
2022-09-20T09:44:26.217Z,98370.92
2022-09-20T09:45:41.408Z,98370.17
2022-09-20T09:46:47.420Z,98367.71
2022-09-20T09:47:53.150Z,98369.96
2022-09-20T09:49:21.168Z,98369.21
2022-09-20T09:50:32.259Z,98366.70
2022-09-20T09:51:38.417Z,98372.83
2022-09-20T09:52:59.216Z,98370.54
2022-09-20T09:54:05.797Z,98372.66
2022-09-20T09:55:13.347Z,98369.41
2022-09-20T09:56:28.490Z,98369.80
2022-09-20T09:57:55.130Z,98372.76
2022-09-20T09:59:11.284Z,98373.63
2022-09-20T10:00:22.746Z,98374.98
2022-09-20T10:01:59.765Z,98373.05
2022-09-20T10:03:28.290Z,98373.96
2022-09-20T10:04:59.478Z,98376.41
2022-09-20T10:06:27.843Z,98373.88
2022-09-20T10:07:47.027Z,98374.04
2022-09-20T10:09:12.372Z,98374.54
2022-09-20T10:10:36.650Z,98375.70
2022-09-20T10:12:20.774Z,98378.50
2022-09-20T10:14:09.454Z,98377.75
2022-09-20T10:15:29.375Z,98376.90
2022-09-20T10:16:42.252Z,98373.10
2022-09-20T10:18:09.698Z,98374.19
2022-09-20T10:19:24.755Z,98371.89
2022-09-20T10:20:54.831Z,98373.73
2022-09-20T10:22:23.189Z,98375.23
2022-09-20T10:24:03.121Z,98376.05
2022-09-20T10:25:41.758Z,98377.83
2022-09-20T10:26:56.259Z,98380.70
2022-09-20T10:28:25.845Z,98380.98
2022-09-20T10:29:43.320Z,98385.18
2022-09-20T10:30:56.324Z,98387.15
2022-09-20T10:32:12.781Z,98389.02
2022-09-20T10:33:50.323Z,98391.92
2022-09-20T10:35:15.440Z,98393.42
2022-09-20T10:36:52.135Z,98389.34
2022-09-20T10:37:58.116Z,98388.08
2022-09-20T10:39:16.236Z,98389.77
2022-09-20T10:41:09.349Z,98390.68
2022-09-20T10:42:58.436Z,98393.20
2022-09-20T10:44:11.108Z,98395.65
2022-09-20T10:46:20.615Z,98398.92
2022-09-20T10:47:08.759Z,98398.19
2022-09-20T10:48:25.758Z,98399.27
2022-09-20T10:49:52.242Z,98401.17
2022-09-20T10:51:02.028Z,98401.02
2022-09-20T10:52:19.387Z,98400.31
2022-09-20T10:53:40.816Z,98399.31
2022-09-20T10:55:16.624Z,98401.15
2022-09-20T10:56:30.040Z,98401.86
2022-09-20T10:57:49.619Z,98404.15
2022-09-20T10:59:20.040Z,98410.63
2022-09-20T11:00:43.480Z,98412.28
2022-09-20T11:02:01.417Z,98414.07
2022-09-20T11:03:20.159Z,98413.72
2022-09-20T11:05:03.054Z,98415.21
2022-09-20T11:06:23.322Z,98420.14
2022-09-20T11:07:53.772Z,98419.86
2022-09-20T11:09:00.711Z,98421.98
2022-09-20T11:10:42.027Z,98423.77
2022-09-20T11:12:10.088Z,98422.48
2022-09-20T11:13:22.111Z,98425.73
2022-09-20T11:14:34.479Z,98424.08
2022-09-20T11:16:06.954Z,98427.39
2022-09-20T11:17:20.304Z,98426.04
2022-09-20T11:18:39.640Z,98423.48
2022-09-20T11:19:45.605Z,98422.71
2022-09-20T11:21:16.075Z,98421.52
2022-09-20T11:22:31.871Z,98418.00
2022-09-20T11:23:52.042Z,98416.70
2022-09-20T11:25:29.639Z,98417.67
2022-09-20T11:26:47.433Z,98418.71
2022-09-20T11:28:10.872Z,98418.23
2022-09-20T11:29:30.333Z,98417.98
2022-09-20T11:30:36.852Z,98421.25
2022-09-20T11:31:44.506Z,98419.89
2022-09-20T11:32:54.150Z,98420.70
2022-09-20T11:34:16.175Z,98422.90
2022-09-20T11:35:40.776Z,98422.69
2022-09-20T11:36:55.311Z,98422.55
2022-09-20T11:38:16.616Z,98421.40
2022-09-20T11:39:33.224Z,98423.10
2022-09-20T11:40:42.265Z,98420.48
2022-09-20T11:41:48.242Z,98419.46
2022-09-20T11:42:54.269Z,98419.76
2022-09-20T11:44:08.785Z,98421.64
2022-09-20T11:45:15.554Z,98424.09
2022-09-20T11:46:30.390Z,98421.88
2022-09-20T11:47:55.279Z,98422.63
2022-09-20T11:49:09.583Z,98422.91
2022-09-20T11:50:44.000Z,98422.95
2022-09-20T11:51:56.104Z,98426.77
2022-09-20T11:53:06.610Z,98429.19
2022-09-20T11:54:27.812Z,98431.85
2022-09-20T11:55:52.665Z,98431.51
2022-09-20T11:56:59.271Z,98435.55
2022-09-20T11:58:12.018Z,98435.46
2022-09-20T11:59:37.763Z,98433.63
2022-09-20T12:00:45.993Z,98435.17
2022-09-20T12:01:52.549Z,98433.84
2022-09-20T12:02:58.550Z,98436.36
2022-09-20T12:05:40.505Z,98437.05
2022-09-20T12:06:46.593Z,98434.48
2022-09-20T12:07:56.197Z,98435.65
2022-09-20T12:09:07.649Z,98435.64
2022-09-20T12:10:23.554Z,98437.40
2022-09-20T12:11:39.406Z,98437.81
2022-09-20T12:13:07.382Z,98438.48
2022-09-20T12:14:29.692Z,98443.02
2022-09-20T12:15:42.569Z,98443.90
2022-09-20T12:16:49.683Z,98447.95
2022-09-20T12:17:59.063Z,98447.74
2022-09-20T12:19:10.134Z,98453.09
2022-09-20T12:20:43.526Z,98457.30
2022-09-20T12:22:04.710Z,98459.83
2022-09-20T12:23:42.539Z,98455.91
2022-09-20T12:24:49.956Z,98458.45
2022-09-20T12:26:05.408Z,98459.30
2022-09-20T12:27:32.907Z,98462.72
2022-09-20T12:28:41.265Z,98463.19
2022-09-20T12:30:14.086Z,98469.54
2022-09-20T12:31:35.118Z,98469.30
2022-09-20T12:32:42.792Z,98471.17
2022-09-20T12:34:11.456Z,98473.98
2022-09-20T12:35:37.091Z,98469.90
2022-09-20T12:37:09.132Z,98472.14
2022-09-20T12:38:22.108Z,98474.64
2022-09-20T12:39:35.172Z,98474.52
2022-09-20T12:41:00.528Z,98470.52
2022-09-20T12:42:12.891Z,98470.14
2022-09-20T12:43:21.553Z,98469.02
2022-09-20T12:44:34.967Z,98470.35
2022-09-20T12:45:42.342Z,98472.89
2022-09-20T12:47:13.545Z,98474.30
2022-09-20T12:48:21.040Z,98477.89
2022-09-20T12:49:49.869Z,98475.90
2022-09-20T12:51:38.924Z,98478.90
2022-09-20T12:52:52.604Z,98479.71
2022-09-20T12:54:18.227Z,98479.54
2022-09-20T12:55:35.464Z,98476.98
2022-09-20T12:56:41.948Z,98476.66
2022-09-20T12:57:48.028Z,98480.24
2022-09-20T12:58:56.060Z,98478.29
2022-09-20T13:00:02.721Z,98478.86
2022-09-20T13:01:13.923Z,98480.11
2022-09-20T13:02:54.159Z,98480.82
2022-09-20T13:04:43.070Z,98478.86
2022-09-20T13:06:16.319Z,98482.90
2022-09-20T13:07:47.747Z,98478.22
2022-09-20T13:09:05.466Z,98478.30
2022-09-20T13:10:31.610Z,98479.56
2022-09-20T13:11:58.698Z,98481.52
2022-09-20T13:13:12.524Z,98483.44
2022-09-20T13:14:23.703Z,98480.52
2022-09-20T13:15:30.408Z,98483.75
2022-09-20T13:16:39.304Z,98484.66
2022-09-20T13:17:45.590Z,98486.96
2022-09-20T13:19:18.804Z,98485.54
2022-09-20T13:20:31.518Z,98487.04
2022-09-20T13:21:43.551Z,98481.90
2022-09-20T13:22:49.890Z,98482.61
2022-09-20T13:23:57.085Z,98481.12
2022-09-20T13:25:08.151Z,98483.02
2022-09-20T13:26:15.994Z,98484.69
2022-09-20T13:27:35.956Z,98487.16
2022-09-20T13:28:55.510Z,98489.71
2022-09-20T13:30:25.941Z,98494.51
2022-09-20T13:31:36.219Z,98505.60
2022-09-20T13:32:43.299Z,98502.98
2022-09-20T13:33:51.982Z,98501.64
2022-09-20T13:35:16.005Z,98501.35
2022-09-20T13:36:30.279Z,98501.98
2022-09-20T13:37:37.194Z,98504.14
2022-09-20T13:38:44.047Z,98505.17
2022-09-20T13:39:59.477Z,98502.20
2022-09-20T13:41:14.693Z,98506.39
2022-09-20T13:42:23.468Z,98509.05
2022-09-20T13:43:42.327Z,98513.54
2022-09-20T13:44:50.052Z,98512.03
2022-09-20T13:46:01.536Z,98512.48
2022-09-20T13:47:45.738Z,98512.39
2022-09-20T13:49:02.382Z,98509.70
2022-09-20T13:50:19.322Z,98507.84
2022-09-20T13:51:30.081Z,98508.44
2022-09-20T13:52:44.944Z,98509.02
2022-09-20T13:53:51.149Z,98507.06
2022-09-20T13:54:58.782Z,98507.55
2022-09-20T13:56:06.450Z,98510.97
2022-09-20T13:57:17.749Z,98510.23
2022-09-20T13:58:34.755Z,98511.81
2022-09-20T13:59:45.988Z,98510.55
2022-09-20T14:00:55.842Z,98509.59
2022-09-20T14:02:02.951Z,98512.80
2022-09-20T14:03:14.662Z,98514.67
2022-09-20T14:04:26.709Z,98513.55
2022-09-20T14:05:34.272Z,98513.30
2022-09-20T14:06:40.316Z,98515.77
2022-09-20T14:07:47.273Z,98515.34
2022-09-20T14:08:53.995Z,98514.52
2022-09-20T14:10:00.941Z,98516.44
2022-09-20T14:11:31.927Z,98520.36
2022-09-20T14:12:39.262Z,98520.33
2022-09-20T14:13:47.603Z,98520.41
2022-09-20T14:14:53.665Z,98520.78
2022-09-20T14:15:59.579Z,98522.80
2022-09-20T14:17:07.064Z,98520.30
2022-09-20T14:18:20.485Z,98520.49
2022-09-20T14:19:37.715Z,98522.42
2022-09-20T14:20:44.367Z,98523.36
2022-09-20T14:21:50.160Z,98524.12
2022-09-20T14:22:59.057Z,98525.05
2022-09-20T14:24:08.912Z,98520.21
2022-09-20T14:25:14.896Z,98521.14
2022-09-20T14:26:30.262Z,98522.74
2022-09-20T14:27:35.892Z,98519.13
2022-09-20T14:28:42.175Z,98520.69
2022-09-20T14:29:52.916Z,98523.49
2022-09-20T14:31:09.955Z,98525.22
2022-09-20T14:32:39.573Z,98527.61
2022-09-20T14:33:54.932Z,98526.98
2022-09-20T14:35:30.654Z,98528.65
2022-09-20T14:36:37.685Z,98533.16
2022-09-20T14:37:45.416Z,98531.94
2022-09-20T14:38:54.889Z,98536.02
2022-09-20T14:40:18.586Z,98539.86
2022-09-20T14:41:37.122Z,98538.86
2022-09-20T14:42:57.591Z,98542.17
2022-09-20T14:44:03.702Z,98538.67
2022-09-20T14:45:17.932Z,98538.61
2022-09-20T14:46:36.647Z,98539.36
2022-09-20T14:48:10.693Z,98540.85
2022-09-20T14:49:26.424Z,98541.70
2022-09-20T14:50:39.232Z,98537.59
2022-09-20T14:51:45.547Z,98534.58
2022-09-20T14:53:13.612Z,98534.59
2022-09-20T14:54:30.540Z,98536.77
2022-09-20T14:55:38.201Z,98538.63
2022-09-20T14:56:55.595Z,98540.77
2022-09-20T14:58:03.714Z,98542.66
2022-09-20T14:59:22.842Z,98542.73
2022-09-20T15:00:30.424Z,98542.83
2022-09-20T15:01:37.444Z,98542.95
2022-09-20T15:02:46.881Z,98542.30
2022-09-20T15:03:52.575Z,98539.74
2022-09-20T15:05:02.020Z,98537.44
2022-09-20T15:06:13.222Z,98535.65
2022-09-20T15:07:21.392Z,98535.41
2022-09-20T15:08:29.069Z,98532.80
2022-09-20T15:09:35.997Z,98534.32
2022-09-20T15:10:42.037Z,98531.63
2022-09-20T15:11:47.788Z,98526.84
2022-09-20T15:12:54.277Z,98528.64
2022-09-20T15:14:01.350Z,98529.35
2022-09-20T15:15:09.183Z,98529.63
2022-09-20T15:16:18.403Z,98529.86